createdAt,value
2023-02-15T00:00:12.716Z,101522.92
2023-02-15T00:02:41.479Z,101521.21
2023-02-15T00:05:09.897Z,101523.95
2023-02-15T00:07:38.068Z,101521.17
2023-02-15T00:10:07.197Z,101523.95
2023-02-15T00:12:36.134Z,101526.70
2023-02-15T00:15:04.787Z,101530.38
2023-02-15T00:17:33.169Z,101524.83
2023-02-15T00:20:01.388Z,101523.88
2023-02-15T00:22:31.279Z,101524.06
2023-02-15T00:24:59.488Z,101522.70
2023-02-15T00:27:27.938Z,101524.13
2023-02-15T00:30:01.230Z,101529.88
2023-02-15T00:32:29.545Z,101535.08
2023-02-15T00:34:57.866Z,101536.68
2023-02-15T00:37:26.372Z,101532.56
2023-02-15T00:39:54.446Z,101530.39
2023-02-15T00:42:22.581Z,101532.13
2023-02-15T00:44:50.983Z,101531.30
2023-02-15T00:50:23.730Z,101533.53
2023-02-15T00:52:52.751Z,101527.75
2023-02-15T00:55:22.111Z,101532.95
2023-02-15T00:57:51.219Z,101529.02
2023-02-15T01:00:19.778Z,101527.98
2023-02-15T01:02:47.953Z,101530.27
2023-02-15T01:05:16.326Z,101534.39
2023-02-15T01:07:45.498Z,101537.34
2023-02-15T01:10:13.682Z,101538.37
2023-02-15T01:12:45.026Z,101539.05
2023-02-15T01:15:13.281Z,101541.83
2023-02-15T01:17:42.089Z,101538.38
2023-02-15T01:20:10.495Z,101538.03
2023-02-15T01:22:39.537Z,101536.69
2023-02-15T01:25:11.370Z,101537.91
2023-02-15T01:27:39.824Z,101536.02
2023-02-15T01:30:12.643Z,101540.05
2023-02-15T01:32:41.274Z,101544.73
2023-02-15T01:35:11.631Z,101543.34
2023-02-15T01:37:40.190Z,101552.33
2023-02-15T01:40:10.615Z,101549.41
2023-02-15T01:42:39.262Z,101550.61
2023-02-15T01:45:24.926Z,101549.95
2023-02-15T01:48:00.793Z,101552.92
2023-02-15T01:50:36.199Z,101555.00
2023-02-15T01:53:41.161Z,101551.55
2023-02-15T01:56:16.409Z,101551.20
2023-02-15T01:58:46.543Z,101545.32
2023-02-15T02:01:14.681Z,101546.87
2023-02-15T02:04:03.656Z,101547.41
2023-02-15T02:06:33.079Z,101552.94
2023-02-15T02:09:02.769Z,101549.14
2023-02-15T02:11:35.429Z,101552.23
2023-02-15T02:14:03.696Z,101558.28
2023-02-15T02:16:50.216Z,101563.47
2023-02-15T02:19:35.731Z,101565.02
2023-02-15T02:22:15.756Z,101568.84
2023-02-15T02:25:23.314Z,101568.15
2023-02-15T02:28:22.476Z,101565.03
2023-02-15T02:30:57.774Z,101564.31
2023-02-15T02:33:30.915Z,101568.27
2023-02-15T02:36:19.133Z,101567.92
2023-02-15T02:39:14.848Z,101564.30
2023-02-15T02:41:50.419Z,101563.62
2023-02-15T02:44:23.409Z,101561.05
2023-02-15T02:46:54.984Z,101564.36
2023-02-15T02:49:37.089Z,101567.52
2023-02-15T02:52:07.874Z,101568.24
2023-02-15T02:54:38.223Z,101570.17
2023-02-15T02:57:07.641Z,101567.61
2023-02-15T02:59:39.930Z,101565.73
2023-02-15T03:02:30.514Z,101567.48
2023-02-15T03:05:04.971Z,101575.27
2023-02-15T03:07:33.616Z,101572.01
2023-02-15T03:10:03.991Z,101575.48
2023-02-15T03:12:34.745Z,101573.26
2023-02-15T03:15:12.453Z,101580.55
2023-02-15T03:17:53.890Z,101585.94
2023-02-15T03:20:26.547Z,101587.34
2023-02-15T03:23:01.156Z,101589.77
2023-02-15T03:25:37.477Z,101592.20
2023-02-15T03:28:08.695Z,101594.27
2023-02-15T03:30:37.548Z,101591.85
2023-02-15T03:33:06.014Z,101591.33
2023-02-15T03:36:02.598Z,101589.09
2023-02-15T03:38:37.580Z,101593.08
2023-02-15T03:41:11.851Z,101592.23
2023-02-15T03:44:00.927Z,101596.73
2023-02-15T03:46:32.443Z,101601.23
2023-02-15T03:49:11.227Z,101598.81
2023-02-15T03:51:40.761Z,101603.14
2023-02-15T03:54:15.206Z,101602.64
2023-02-15T03:57:04.151Z,101606.25
2023-02-15T03:59:51.736Z,101610.58
2023-02-15T04:02:22.972Z,101609.36
2023-02-15T04:04:51.095Z,101609.36
2023-02-15T04:07:19.671Z,101611.25
2023-02-15T04:10:06.393Z,101606.23
2023-02-15T04:12:34.758Z,101611.96
2023-02-15T04:15:22.537Z,101615.09
2023-02-15T04:17:50.612Z,101616.11
2023-02-15T04:20:37.403Z,101612.86
2023-02-15T04:23:26.153Z,101618.90
2023-02-15T04:25:54.294Z,101617.02
2023-02-15T04:28:22.416Z,101620.63
2023-02-15T04:30:50.812Z,101614.09
2023-02-15T04:33:19.867Z,101622.02
2023-02-15T04:35:48.003Z,101624.79
2023-02-15T04:38:18.560Z,101624.09
2023-02-15T04:40:51.851Z,101627.20
2023-02-15T04:43:20.480Z,101625.45
2023-02-15T04:45:51.478Z,101624.25
2023-02-15T04:48:19.730Z,101622.88
2023-02-15T04:50:47.945Z,101623.02
2023-02-15T04:53:17.768Z,101619.93
2023-02-15T04:55:46.354Z,101623.23
2023-02-15T04:58:14.592Z,101626.70
2023-02-15T05:00:43.171Z,101624.99
2023-02-15T05:03:11.365Z,101630.18
2023-02-15T05:05:39.937Z,101628.80
2023-02-15T05:08:08.809Z,101629.84
2023-02-15T05:10:37.489Z,101633.48
2023-02-15T05:13:05.664Z,101639.87
2023-02-15T05:15:37.535Z,101643.34
2023-02-15T05:18:07.556Z,101645.07
2023-02-15T05:20:35.692Z,101647.84
2023-02-15T05:23:04.114Z,101651.98
2023-02-15T05:25:51.012Z,101652.51
2023-02-15T05:28:22.600Z,101658.40
2023-02-15T05:30:52.116Z,101659.96
2023-02-15T05:33:20.983Z,101663.10
2023-02-15T05:35:49.925Z,101665.86
2023-02-15T05:38:18.578Z,101666.92
2023-02-15T05:40:47.429Z,101662.98
2023-02-15T05:43:16.956Z,101660.91
2023-02-15T05:45:47.316Z,101664.03
2023-02-15T05:48:16.373Z,101660.44
2023-02-15T05:50:45.176Z,101662.63
2023-02-15T05:53:13.794Z,101664.70
2023-02-15T05:55:42.456Z,101675.77
2023-02-15T05:58:10.774Z,101680.80
2023-02-15T06:00:39.190Z,101683.05
2023-02-15T06:03:07.355Z,101686.20
2023-02-15T06:05:36.664Z,101684.66
2023-02-15T06:08:06.043Z,101691.09
2023-02-15T06:10:34.699Z,101694.55
2023-02-15T06:13:03.562Z,101690.09
2023-02-15T06:15:32.232Z,101693.06
2023-02-15T06:18:00.724Z,101697.21
2023-02-15T06:20:28.934Z,101695.48
2023-02-15T06:22:57.346Z,101696.88
2023-02-15T06:25:25.827Z,101693.96
2023-02-15T06:27:54.247Z,101693.98
2023-02-15T06:30:22.754Z,101696.23
2023-02-15T06:32:52.216Z,101699.02
2023-02-15T06:35:20.505Z,101696.61
2023-02-15T06:37:50.511Z,101692.11
2023-02-15T06:40:19.087Z,101694.52
2023-02-15T06:42:47.197Z,101689.33
2023-02-15T06:45:15.551Z,101691.90
2023-02-15T06:47:43.845Z,101690.67
2023-02-15T06:50:12.549Z,101689.42
2023-02-15T06:52:40.661Z,101688.88
2023-02-15T06:55:09.001Z,101683.50
2023-02-15T06:57:37.117Z,101681.40
2023-02-15T07:00:07.173Z,101681.38
2023-02-15T07:02:35.781Z,101677.05
2023-02-15T07:05:06.330Z,101674.27
2023-02-15T07:07:34.779Z,101677.40
2023-02-15T07:10:04.072Z,101673.25
2023-02-15T07:12:46.123Z,101673.10
2023-02-15T07:15:17.017Z,101675.17
2023-02-15T07:17:46.896Z,101678.09
2023-02-15T07:20:17.819Z,101678.43
2023-02-15T07:22:46.105Z,101674.77
2023-02-15T07:25:14.506Z,101671.98
2023-02-15T07:27:43.049Z,101667.47
2023-02-15T07:30:12.818Z,101668.32
2023-02-15T07:33:02.799Z,101662.41
2023-02-15T07:35:33.684Z,101663.08
2023-02-15T07:38:02.023Z,101659.06
2023-02-15T07:40:30.991Z,101661.09
2023-02-15T07:43:00.338Z,101667.77
2023-02-15T07:45:28.714Z,101662.34
2023-02-15T07:47:56.919Z,101661.10
2023-02-15T07:50:25.448Z,101671.12
2023-02-15T07:52:53.678Z,101673.17
2023-02-15T07:55:21.866Z,101675.20
2023-02-15T07:57:50.581Z,101673.11
2023-02-15T08:00:21.416Z,101678.77
2023-02-15T08:03:10.733Z,101681.47
2023-02-15T08:05:42.194Z,101689.59
2023-02-15T08:08:30.922Z,101689.42
2023-02-15T08:11:29.873Z,101693.06
2023-02-15T08:14:18.204Z,101693.23
2023-02-15T08:16:48.418Z,101696.49
2023-02-15T08:19:19.666Z,101696.98
2023-02-15T08:21:49.843Z,101695.57
2023-02-15T08:24:19.577Z,101693.30
2023-02-15T08:26:48.971Z,101693.33
2023-02-15T08:29:19.893Z,101704.90
2023-02-15T08:31:48.535Z,101704.94
2023-02-15T08:34:18.519Z,101706.66
2023-02-15T08:36:46.995Z,101705.30
2023-02-15T08:39:15.634Z,101700.96
2023-02-15T08:41:45.430Z,101702.34
2023-02-15T08:44:14.056Z,101700.55
2023-02-15T08:46:43.556Z,101700.69
2023-02-15T08:49:14.808Z,101701.87
2023-02-15T08:51:43.419Z,101703.38
2023-02-15T08:54:17.726Z,101707.47
2023-02-15T08:56:46.209Z,101711.05
2023-02-15T08:59:23.132Z,101700.63
2023-02-15T09:01:52.742Z,101704.04
2023-02-15T09:04:21.522Z,101704.35
2023-02-15T09:06:50.195Z,101707.27
2023-02-15T09:09:23.489Z,101705.84
2023-02-15T09:11:57.642Z,101703.39
2023-02-15T09:14:27.988Z,101701.09
2023-02-15T09:16:57.216Z,101697.09
2023-02-15T09:19:25.812Z,101710.04
2023-02-15T09:21:55.002Z,101712.92
2023-02-15T09:24:23.196Z,101706.53
2023-02-15T09:26:54.505Z,101714.74
2023-02-15T09:29:23.870Z,101713.55
2023-02-15T09:31:52.087Z,101712.67
2023-02-15T09:34:21.883Z,101711.06
2023-02-15T09:36:50.326Z,101710.17
2023-02-15T09:39:26.008Z,101703.40
2023-02-15T09:41:56.744Z,101704.61
2023-02-15T09:44:34.012Z,101708.17
2023-02-15T09:47:14.331Z,101706.56
2023-02-15T09:49:55.322Z,101710.48
2023-02-15T09:52:42.689Z,101707.52
2023-02-15T09:55:30.770Z,101706.09
2023-02-15T09:58:03.865Z,101702.92
2023-02-15T10:00:50.675Z,101707.58
2023-02-15T10:03:43.752Z,101703.77
2023-02-15T10:06:43.167Z,101699.85
2023-02-15T10:09:25.107Z,101699.02
2023-02-15T10:12:04.221Z,101694.55
2023-02-15T10:14:39.081Z,101695.17
2023-02-15T10:17:10.325Z,101697.80
2023-02-15T10:20:12.378Z,101697.73
2023-02-15T10:22:55.858Z,101696.23
2023-02-15T10:25:33.254Z,101697.39
2023-02-15T10:28:11.375Z,101700.27
2023-02-15T10:30:52.806Z,101695.16
2023-02-15T10:33:43.142Z,101695.92
2023-02-15T10:36:22.204Z,101699.25
2023-02-15T10:38:56.725Z,101696.52
2023-02-15T10:41:40.346Z,101691.23
2023-02-15T10:44:11.462Z,101692.42
2023-02-15T10:46:53.831Z,101690.22
2023-02-15T10:49:56.379Z,101692.27
2023-02-15T10:52:34.616Z,101687.42
2023-02-15T10:55:21.100Z,101687.97
2023-02-15T10:58:00.356Z,101686.52
2023-02-15T11:00:46.231Z,101689.38
2023-02-15T11:03:48.860Z,101685.32
2023-02-15T11:06:19.431Z,101680.83
2023-02-15T11:08:51.117Z,101683.77
2023-02-15T11:11:24.618Z,101679.55
2023-02-15T11:14:05.705Z,101678.23
2023-02-15T11:16:37.414Z,101678.51
2023-02-15T11:19:14.243Z,101680.88
2023-02-15T11:21:54.335Z,101673.65
2023-02-15T11:24:23.087Z,101678.59
2023-02-15T11:27:25.224Z,101670.34
2023-02-15T11:30:01.953Z,101675.27
2023-02-15T11:32:38.750Z,101676.48
2023-02-15T11:35:12.130Z,101677.40
2023-02-15T11:37:52.150Z,101678.81
2023-02-15T11:40:30.416Z,101677.79
2023-02-15T11:43:27.486Z,101671.53
2023-02-15T11:45:55.876Z,101670.02
2023-02-15T11:48:24.305Z,101665.87
2023-02-15T11:50:52.610Z,101661.80
2023-02-15T11:53:22.681Z,101662.91
2023-02-15T11:55:52.249Z,101659.09
2023-02-15T11:58:23.124Z,101661.22
2023-02-15T12:00:55.184Z,101660.25
2023-02-15T12:03:29.712Z,101655.96
2023-02-15T12:06:03.217Z,101653.41
2023-02-15T12:08:41.709Z,101651.83
2023-02-15T12:11:13.508Z,101645.67
2023-02-15T12:14:00.606Z,101645.34
2023-02-15T12:16:30.558Z,101648.83
2023-02-15T12:19:00.307Z,101649.39
2023-02-15T12:21:33.203Z,101652.03
2023-02-15T12:24:05.136Z,101648.88
2023-02-15T12:26:36.366Z,101649.88
2023-02-15T12:29:18.068Z,101649.02
2023-02-15T12:31:47.004Z,101650.77
2023-02-15T12:34:28.290Z,101644.25
2023-02-15T12:36:59.266Z,101644.23
2023-02-15T12:39:28.816Z,101641.30
2023-02-15T12:41:57.144Z,101635.52
2023-02-15T12:44:27.927Z,101635.83
2023-02-15T12:47:02.395Z,101633.42
2023-02-15T12:49:38.054Z,101634.54
2023-02-15T12:52:13.296Z,101628.67
2023-02-15T12:54:43.500Z,101627.32
2023-02-15T12:57:24.130Z,101636.25
2023-02-15T13:00:12.758Z,101627.58
2023-02-15T13:02:45.825Z,101631.39
2023-02-15T13:06:36.465Z,101627.11
2023-02-15T13:09:26.913Z,101626.81
2023-02-15T13:11:55.142Z,101628.02
2023-02-15T13:14:25.699Z,101629.61
2023-02-15T13:16:54.498Z,101632.58
2023-02-15T13:22:25.573Z,101639.60
2023-02-15T13:24:57.065Z,101638.91
2023-02-15T13:27:31.544Z,101642.95
2023-02-15T13:30:01.985Z,101640.14
2023-02-15T13:32:39.335Z,101643.77
2023-02-15T13:35:11.311Z,101635.36
2023-02-15T13:37:58.423Z,101638.73
2023-02-15T13:40:47.651Z,101643.55
2023-02-15T13:43:18.848Z,101642.44
2023-02-15T13:46:05.768Z,101640.61
2023-02-15T13:48:52.661Z,101642.59
2023-02-15T13:51:29.665Z,101641.66
2023-02-15T13:54:16.776Z,101637.44
2023-02-15T13:57:02.251Z,101641.55
2023-02-15T13:59:41.696Z,101639.01
2023-02-15T14:02:13.547Z,101638.75
2023-02-15T14:04:46.858Z,101640.09
2023-02-15T14:07:48.554Z,101637.58
2023-02-15T14:10:38.579Z,101643.33
2023-02-15T14:13:32.778Z,101644.25
2023-02-15T14:16:30.201Z,101647.60
2023-02-15T14:19:42.440Z,101645.35
2023-02-15T14:22:16.801Z,101643.64
2023-02-15T14:24:46.704Z,101646.94
2023-02-15T14:27:17.632Z,101654.75
2023-02-15T14:29:50.578Z,101654.38
2023-02-15T14:32:25.128Z,101655.71
2023-02-15T14:34:55.266Z,101661.02
2023-02-15T14:37:32.124Z,101659.75
2023-02-15T14:40:48.091Z,101659.86
2023-02-15T14:43:29.082Z,101663.39
2023-02-15T14:46:00.276Z,101667.44
2023-02-15T14:48:42.672Z,101662.56
2023-02-15T14:51:11.374Z,101666.18
2023-02-15T14:53:40.404Z,101667.34
2023-02-15T14:56:11.358Z,101668.31
2023-02-15T14:58:39.596Z,101671.14
2023-02-15T15:01:09.038Z,101672.21
2023-02-15T15:03:37.898Z,101673.50
2023-02-15T15:06:06.806Z,101678.31
2023-02-15T15:08:38.580Z,101680.02
2023-02-15T15:11:41.095Z,101681.72
2023-02-15T15:14:37.949Z,101684.09
2023-02-15T15:17:06.817Z,101694.78
2023-02-15T15:19:52.172Z,101694.35
2023-02-15T15:22:22.890Z,101701.55
2023-02-15T15:24:58.218Z,101700.76
2023-02-15T15:27:56.192Z,101704.46
2023-02-15T15:30:31.870Z,101709.77
2023-02-15T15:33:04.369Z,101702.54
2023-02-15T15:35:37.261Z,101704.52
2023-02-15T15:38:39.240Z,101706.15
2023-02-15T15:41:21.218Z,101706.71
2023-02-15T15:44:08.177Z,101705.92
2023-02-15T15:47:05.028Z,101711.52
2023-02-15T15:49:34.011Z,101709.30
2023-02-15T15:52:03.137Z,101711.94
2023-02-15T15:54:31.767Z,101716.32
2023-02-15T15:57:02.489Z,101717.58
2023-02-15T15:59:32.407Z,101724.89
2023-02-15T16:02:07.982Z,101723.71
2023-02-15T16:04:36.692Z,101725.66
2023-02-15T16:07:17.343Z,101727.77
2023-02-15T16:10:04.342Z,101727.81
2023-02-15T16:12:37.096Z,101728.17
2023-02-15T16:15:50.734Z,101729.21
2023-02-15T16:18:22.150Z,101729.05
2023-02-15T16:20:54.415Z,101731.68
2023-02-15T16:23:48.307Z,101731.17
2023-02-15T16:26:44.460Z,101735.17
2023-02-15T16:29:18.012Z,101733.81
2023-02-15T16:32:06.983Z,101739.04
2023-02-15T16:34:38.160Z,101740.64
2023-02-15T16:37:19.681Z,101740.67
2023-02-15T16:39:51.308Z,101736.73
2023-02-15T16:42:19.902Z,101739.73
2023-02-15T16:44:53.587Z,101743.59
2023-02-15T16:47:29.593Z,101740.16
2023-02-15T16:49:58.526Z,101738.25
2023-02-15T16:52:27.685Z,101740.54
2023-02-15T16:55:00.175Z,101737.11
2023-02-15T16:57:32.087Z,101733.14
2023-02-15T17:00:06.344Z,101733.67
2023-02-15T17:02:55.066Z,101734.17
2023-02-15T17:05:23.691Z,101733.98
2023-02-15T17:08:44.825Z,101738.10
2023-02-15T17:11:18.555Z,101740.33
2023-02-15T17:14:12.465Z,101738.91
2023-02-15T17:16:50.599Z,101735.75
2023-02-15T17:19:33.920Z,101737.13
2023-02-15T17:22:07.654Z,101738.33
2023-02-15T17:24:39.552Z,101740.06
2023-02-15T17:27:22.339Z,101740.25
2023-02-15T17:30:02.384Z,101743.73
2023-02-15T17:32:32.700Z,101740.77
2023-02-15T17:35:04.202Z,101739.91
2023-02-15T17:37:39.304Z,101738.55
2023-02-15T17:40:30.109Z,101738.91
2023-02-15T17:42:58.658Z,101743.27
2023-02-15T17:45:32.271Z,101745.35
2023-02-15T17:48:02.264Z,101746.58
2023-02-15T17:50:31.894Z,101744.02
2023-02-15T17:53:01.857Z,101746.30
2023-02-15T17:55:36.749Z,101745.10
2023-02-15T17:58:15.972Z,101741.54
2023-02-15T18:01:05.508Z,101743.52
2023-02-15T18:04:07.531Z,101745.15
2023-02-15T18:06:55.991Z,101746.26
2023-02-15T18:09:43.441Z,101745.27
2023-02-15T18:12:18.575Z,101741.19
2023-02-15T18:14:47.619Z,101743.14
2023-02-15T18:17:18.001Z,101750.29
2023-02-15T18:19:46.397Z,101745.84
2023-02-15T18:22:19.390Z,101746.74
2023-02-15T18:24:48.809Z,101744.71
2023-02-15T18:27:17.210Z,101745.63
2023-02-15T18:29:46.592Z,101746.33
2023-02-15T18:32:18.045Z,101743.73
2023-02-15T18:34:46.407Z,101743.77
2023-02-15T18:37:20.097Z,101747.06
2023-02-15T18:39:54.536Z,101749.20
2023-02-15T18:42:36.746Z,101752.86
2023-02-15T18:45:13.678Z,101750.14
2023-02-15T18:47:42.812Z,101749.48
2023-02-15T18:50:12.757Z,101749.52
2023-02-15T18:52:40.963Z,101751.96
2023-02-15T18:55:19.765Z,101747.98
2023-02-15T18:57:48.929Z,101746.99
2023-02-15T19:00:22.509Z,101746.34
2023-02-15T19:02:51.919Z,101743.41
2023-02-15T19:05:20.301Z,101742.58
2023-02-15T19:07:48.775Z,101744.84
2023-02-15T19:10:23.219Z,101741.79
2023-02-15T19:12:51.713Z,101741.42
2023-02-15T19:15:33.127Z,101740.40
2023-02-15T19:18:02.669Z,101745.41
2023-02-15T19:20:36.322Z,101744.20
2023-02-15T19:23:07.467Z,101745.08
2023-02-15T19:25:38.286Z,101749.59
2023-02-15T19:28:14.378Z,101747.68
2023-02-15T19:30:42.699Z,101745.42
2023-02-15T19:33:19.748Z,101746.45
2023-02-15T19:35:54.607Z,101742.48
2023-02-15T19:38:42.174Z,101741.79
2023-02-15T19:41:19.988Z,101745.27
2023-02-15T19:43:53.618Z,101747.02
2023-02-15T19:46:23.450Z,101745.30
2023-02-15T19:48:52.720Z,101746.89
2023-02-15T19:51:22.506Z,101746.55
2023-02-15T19:53:51.798Z,101748.16
2023-02-15T19:56:24.191Z,101746.29
2023-02-15T19:58:52.330Z,101750.50
2023-02-15T20:01:22.612Z,101745.33
2023-02-15T20:03:52.549Z,101743.98
2023-02-15T20:06:21.273Z,101744.67
2023-02-15T20:08:51.307Z,101743.85
2023-02-15T20:11:19.824Z,101744.05
2023-02-15T20:13:50.510Z,101741.98
2023-02-15T20:16:18.983Z,101742.52
2023-02-15T20:18:47.386Z,101744.98
2023-02-15T20:21:16.394Z,101749.31
2023-02-15T20:23:46.181Z,101742.02
2023-02-15T20:26:18.536Z,101747.40
2023-02-15T20:28:47.570Z,101747.92
2023-02-15T20:31:16.837Z,101745.16
2023-02-15T20:33:46.317Z,101748.27
2023-02-15T20:36:19.844Z,101748.29
2023-02-15T20:38:48.372Z,101743.45
2023-02-15T20:41:38.964Z,101749.88
2023-02-15T20:44:27.645Z,101744.54
2023-02-15T20:46:57.632Z,101747.33
2023-02-15T20:49:27.271Z,101747.70
2023-02-15T20:51:56.308Z,101744.77
2023-02-15T20:54:26.595Z,101744.60
2023-02-15T20:56:54.822Z,101749.28
2023-02-15T20:59:33.345Z,101749.30
2023-02-15T21:02:05.682Z,101747.05
2023-02-15T21:04:34.446Z,101745.35
2023-02-15T21:07:02.636Z,101747.63
2023-02-15T21:09:31.111Z,101749.70
2023-02-15T21:12:00.055Z,101750.75
2023-02-15T21:14:28.288Z,101752.33
2023-02-15T21:16:57.198Z,101749.56
2023-02-15T21:19:27.581Z,101750.80
2023-02-15T21:21:56.359Z,101753.05
2023-02-15T21:24:27.214Z,101754.63
2023-02-15T21:26:56.105Z,101751.53
2023-02-15T21:29:26.320Z,101755.51
2023-02-15T21:31:54.869Z,101756.73
2023-02-15T21:34:23.227Z,101756.58
2023-02-15T21:36:51.872Z,101755.89
2023-02-15T21:39:24.049Z,101753.47
2023-02-15T21:42:12.314Z,101751.22
2023-02-15T21:45:19.094Z,101754.15
2023-02-15T21:47:53.183Z,101749.84
2023-02-15T21:50:41.993Z,101750.75
2023-02-15T21:53:12.040Z,101754.23
2023-02-15T21:55:40.383Z,101751.30
2023-02-15T21:58:15.771Z,101758.08
2023-02-15T22:00:44.029Z,101751.52
2023-02-15T22:03:12.325Z,101754.30
2023-02-15T22:05:40.862Z,101755.17
2023-02-15T22:08:13.373Z,101750.54
2023-02-15T22:10:43.994Z,101751.60
2023-02-15T22:13:16.609Z,101752.64
2023-02-15T22:15:46.750Z,101753.73
2023-02-15T22:18:20.858Z,101754.09
2023-02-15T22:20:49.304Z,101749.08
2023-02-15T22:23:18.345Z,101749.29
2023-02-15T22:25:56.650Z,101750.34
2023-02-15T22:28:34.017Z,101748.63
2023-02-15T22:31:03.500Z,101751.23
2023-02-15T22:33:33.776Z,101750.39
2023-02-15T22:36:05.292Z,101750.90
2023-02-15T22:38:33.686Z,101752.13
2023-02-15T22:41:06.600Z,101753.00
2023-02-15T22:43:39.571Z,101751.79
2023-02-15T22:46:11.209Z,101752.98
2023-02-15T22:48:39.803Z,101751.95
2023-02-15T22:51:13.873Z,101752.48
2023-02-15T22:53:42.250Z,101749.36
2023-02-15T22:56:37.489Z,101759.57
2023-02-15T22:59:07.772Z,101756.27
2023-02-15T23:01:36.787Z,101760.95
2023-02-15T23:04:05.236Z,101761.81
2023-02-15T23:06:34.638Z,101758.52
2023-02-15T23:09:03.012Z,101756.80
2023-02-15T23:11:31.166Z,101758.38
2023-02-15T23:13:59.735Z,101755.28
2023-02-15T23:16:28.150Z,101753.04
2023-02-15T23:18:57.627Z,101752.00
2023-02-15T23:21:28.606Z,101750.27
2023-02-15T23:24:20.798Z,101745.08
2023-02-15T23:26:49.139Z,101747.52
2023-02-15T23:29:23.828Z,101750.45
2023-02-15T23:31:53.164Z,101752.88
2023-02-15T23:34:27.093Z,101749.95
2023-02-15T23:36:55.692Z,101749.77
2023-02-15T23:39:46.370Z,101750.30
2023-02-15T23:42:20.197Z,101752.05
2023-02-15T23:44:50.898Z,101754.31
2023-02-15T23:47:48.534Z,101752.26
2023-02-15T23:50:29.448Z,101760.25
2023-02-15T23:52:57.951Z,101761.13
2023-02-15T23:55:34.129Z,101761.14
2023-02-15T23:58:03.624Z,101762.02
